Date,TemperatureHighF,TemperatureAvgF,TemperatureLowF,DewpointHighF,DewpointAvgF,DewpointLowF,HumidityHigh,HumidityAvg,HumidityLow,PressureMaxIn,PressureMinIn,WindSpeedMaxMPH,WindSpeedAvgMPH,GustSpeedMaxMPH,PrecipitationSumIn
2012-4-13,68,60,50,58,51,49,96,75,54,29.90,29.68,29,6,34,0.21
2012-4-14,67,57,0,58,52,-79,97,87,1,29.91,29.41,32,4,32,0.42
2012-4-15,69,60,43,61,51,-79,98,76,28,29.60,29.27,43,9,43,0.10
2012-4-16,50,41,0,43,28,-79,96,73,1,30.31,1.40,43,12,44,0.04
2012-4-17,74,53,0,48,33,-79,89,57,1,30.32,1.40,26,5,26,0.00
2012-4-18,70,61,53,52,45,-79,84,58,36,30.10,30.00,31,3,31,0.32
2012-4-19,53,46,42,46,42,38,97,89,75,30.08,29.88,21,4,23,0.34
2012-4-20,61,46,0,40,24,-79,95,52,1,30.23,1.40,16,3,17,0.00
2012-4-21,68,48,0,45,20,-79,80,44,1,30.14,1.40,38,9,42,0.02
2012-4-22,61,49,0,42,35,-79,92,63,1,30.35,30.13,34,8,34,0.00
2012-4-23,74,56,36,41,35,28,96,55,22,30.35,29.93,13,2,15,0.00
2012-4-24,92,69,49,55,43,36,72,44,18,29.93,29.67,10,2,10,0.00
2012-4-25,84,72,61,52,45,38,72,40,21,29.93,29.62,35,7,36,0.00
2012-4-26,73,62,53,51,39,23,75,45,24,30.19,29.93,14,3,16,0.00
2012-4-27,63,52,43,41,37,30,93,59,32,30.15,29.76,40,8,42,0.51
2012-4-28,62,50,42,47,44,40,96,82,55,30.19,29.85,14,2,14,0.03
2012-4-29,54,49,46,48,46,44,97,89,77,30.22,30.09,17,2,19,0.00
2012-4-30,75,60,48,53,48,44,97,71,35,30.10,29.88,21,4,21,0.00
2012-5-1,85,69,57,62,58,53,95,69,40,29.88,29.65,27,5,31,0.00
2012-5-2,81,69,56,68,62,55,98,81,59,29.86,29.71,14,3,16,0.00
2012-5-3,90,76,65,68,58,45,93,59,25,29.98,29.78,21,2,21,0.01
2012-5-4,86,71,63,67,61,57,95,72,44,29.98,29.90,29,3,29,0.10
2012-5-5,90,75,62,73,66,61,98,76,45,30.00,29.84,25,3,27,0.01
2012-5-6,78,64,54,69,58,48,97,81,66,30.18,29.86,29,9,29,0.24
2012-5-7,67,58,49,50,41,30,92,56,28,30.22,30.12,27,9,28,0.00
2012-5-8,60,55,46,44,40,35,79,59,44,30.18,30.11,35,8,43,0.00
2012-5-9,71,56,41,47,41,36,96,61,29,30.21,30.02,14,2,14,0.00
2012-5-10,58,56,54,43,41,39,66,58,49,30.02,29.99,9,3,9,0.00
2012-5-13,80,72,57,49,38,31,59,31,20,30.38,30.24,9,2,11,0.00
2012-5-14,85,68,50,50,40,30,82,42,14,30.24,30.06,14,2,14,0.00
2012-5-15,78,68,57,45,37,30,52,34,18,30.23,30.02,26,5,26,0.00
2012-5-16,79,65,45,42,37,32,79,40,19,30.28,30.05,17,4,20,0.00
2012-5-17,91,76,62,52,43,35,51,33,17,30.05,29.85,27,7,27,0.00
2012-5-18,91,79,68,55,52,47,61,41,23,29.89,29.79,33,8,33,0.00
2012-5-19,81,72,60,62,58,52,98,63,43,30.02,29.82,28,7,28,0.94
2012-5-20,70,61,55,58,48,40,97,67,35,30.37,30.01,26,7,28,0.00
2012-5-21,74,63,49,50,44,39,91,54,31,30.40,30.16,16,3,17,0.00
2012-5-22,85,73,61,52,46,43,56,40,29,30.16,29.73,27,6,27,0.00
2012-5-23,83,73,58,60,52,44,98,49,35,29.74,29.56,25,7,26,0.71
2012-5-24,70,59,54,59,55,48,98,88,49,29.91,29.55,28,4,29,1.11
2012-5-25,66,59,52,59,55,51,97,89,75,30.15,29.91,11,1,11,0.03
2012-5-26,89,73,59,72,64,54,95,75,56,30.12,29.83,24,7,28,0.19
2012-5-27,90,76,60,70,65,59,98,70,43,29.86,29.67,32,5,35,1.31
2012-5-28,74,66,60,65,55,44,98,71,36,29.99,29.78,24,4,24,0.25
2012-5-29,70,61,54,53,44,39,87,54,34,30.14,29.99,31,7,31,0.00
2012-5-30,64,54,45,53,46,39,97,76,42,30.18,30.00,13,2,14,0.08
2012-5-31,64,53,0,51,47,-79,97,82,1,30.19,30.08,19,3,19,0.10
2012-6-1,66,55,44,54,48,38,97,80,37,30.14,29.94,14,2,14,0.05
2012-6-2,78,62,52,55,52,44,97,74,32,30.00,29.90,21,5,21,0.00
2012-6-3,86,78,72,63,60,58,75,55,39,29.94,29.87,16,4,17,0.00
2012-6-4,88,76,62,63,56,46,94,55,25,30.10,29.94,13,4,16,0.00
2012-6-5,88,74,0,63,53,-79,75,51,1,30.12,30.00,7,1,7,0.00
2012-6-6,86,76,66,61,58,54,80,54,36,30.15,30.02,15,3,16,0.00
2012-6-7,85,76,67,62,57,55,68,52,39,30.23,30.12,18,5,22,0.00
2012-6-8,88,78,68,59,54,51,59,46,32,30.16,29.93,21,4,21,0.00
2012-6-9,89,79,68,60,54,50,58,43,30,29.93,29.73,31,7,31,0.00
2012-6-10,83,75,62,66,61,53,85,62,46,29.92,29.72,25,6,25,0.01
2012-6-11,77,67,58,57,48,36,89,56,24,30.21,29.88,30,7,31,0.00
2012-6-12,75,63,50,52,44,40,84,53,31,30.36,30.20,16,2,16,0.01
2012-6-13,83,70,56,56,52,47,88,55,38,30.24,29.93,24,8,33,0.18
2012-6-14,86,78,71,71,64,55,85,65,48,30.03,29.88,22,4,24,0.00
2012-6-15,80,72,65,66,62,56,91,73,48,30.12,30.02,11,1,13,0.00
2012-6-16,80,70,63,66,60,50,99,75,35,30.17,30.04,24,3,25,0.22
2012-6-17,90,76,60,72,63,53,86,67,45,30.11,29.60,28,5,28,0.00
2012-6-18,98,84,76,72,66,61,65,55,36,29.71,29.52,18,4,19,0.00
2012-6-19,92,84,76,69,68,65,73,59,46,29.83,29.68,29,6,29,0.00
2012-6-20,81,69,0,68,60,-79,97,78,1,30.12,29.78,28,5,32,0.02
2012-6-21,80,68,0,60,53,-79,98,65,1,30.25,30.12,21,4,21,0.00
2012-6-22,84,73,60,60,56,51,87,58,36,30.21,30.03,20,4,20,0.00
2012-6-23,81,71,0,68,60,-79,96,70,1,30.08,29.90,21,6,21,0.29
2012-6-24,89,77,66,74,68,-79,96,74,54,30.11,29.98,11,2,11,0.00
2012-6-25,85,77,0,69,65,-79,86,69,1,30.19,30.06,18,4,19,0.00
2012-6-26,86,76,66,69,61,52,72,60,50,30.09,29.79,27,10,29,0.00
2012-6-27,103,87,77,76,68,-79,83,57,25,29.90,29.72,24,5,24,0.00
2012-6-28,94,79,0,75,63,-79,91,65,1,30.12,29.90,17,2,19,0.00
2012-6-29,89,78,69,70,64,58,94,64,37,30.07,29.95,19,2,20,0.20
2012-6-30,90,76,0,71,65,-79,99,72,1,30.06,29.93,26,2,26,0.02
2012-7-1,89,80,71,74,70,66,99,75,50,30.07,29.98,12,2,13,0.00
2012-7-2,94,84,75,74,69,65,85,62,40,30.04,29.96,16,3,16,0.00
2012-7-3,95,84,74,74,70,67,79,63,49,29.99,29.90,17,3,17,0.00
2012-7-4,96,86,77,72,68,63,72,57,42,29.96,29.90,17,4,20,0.00
2012-7-5,96,86,78,75,70,-79,74,59,46,30.08,29.96,16,4,16,0.00
2012-7-6,99,88,78,74,69,66,77,56,38,30.12,30.05,19,4,21,0.00
2012-7-7,87,77,69,74,65,58,91,68,44,30.28,30.12,17,4,19,0.00
2012-7-8,87,75,65,66,60,52,97,63,33,30.35,30.26,12,2,12,0.06
2012-7-9,89,76,62,66,62,58,97,66,37,30.31,30.25,17,3,18,0.06
2012-7-10,89,75,59,61,56,50,98,57,29,30.34,30.25,11,1,11,0.00
2012-7-11,88,75,62,62,59,54,98,60,34,30.28,30.16,12,2,14,0.00
2012-7-12,74,73,71,62,60,60,70,66,63,30.18,30.15,9,3,10,0.00
2012-7-18,95,86,79,71,69,65,76,58,40,30.07,30.02,7,1,9,0.00
2012-7-19,98,84,70,73,70,65,99,66,36,30.21,30.06,11,2,11,0.00
2012-7-20,95,83,74,72,69,65,82,64,38,30.27,30.16,20,5,20,0.00
2012-7-21,92,83,74,68,64,61,74,55,40,30.23,30.04,21,5,21,0.00
2012-7-22,104,88,75,72,64,58,77,47,27,30.15,30.05,17,3,17,0.04
2012-7-23,103,89,75,68,64,59,76,46,25,30.16,30.03,16,2,16,0.04
2012-7-24,100,88,77,68,64,61,62,46,32,30.06,29.86,22,4,22,0.00
2012-7-25,95,83,74,72,67,61,84,59,38,29.89,29.79,35,6,35,0.00
2012-7-26,90,79,68,71,61,50,99,60,27,30.08,29.87,28,6,30,0.00
2012-7-27,87,73,61,62,58,54,94,63,35,30.23,30.08,18,4,19,0.00
2012-7-28,81,73,66,64,61,58,90,68,51,30.28,30.09,26,5,26,0.04
2012-7-29,93,79,68,69,64,59,83,63,41,30.11,30.03,18,4,19,0.00
2012-7-30,101,84,69,72,65,52,99,62,21,30.12,30.05,13,2,14,0.00
2012-7-31,94,82,70,68,63,60,73,54,38,30.18,30.08,11,2,12,0.00
2012-8-1,98,84,70,68,63,57,88,52,27,30.10,29.95,26,3,30,0.02
2012-8-2,92,78,66,69,66,62,99,70,39,30.11,29.97,13,2,26,0.01
2012-8-3,97,82,70,70,64,54,81,56,29,30.04,29.85,27,3,31,0.00
2012-8-4,82,72,62,67,58,48,99,66,31,30.20,29.91,31,8,33,0.36
2012-8-5,86,70,56,59,55,51,98,64,33,30.40,30.21,11,2,11,0.00
2012-8-6,94,79,0,62,56,-79,66,49,1,30.26,30.08,15,4,17,0.00
2012-8-7,95,82,69,69,63,58,81,55,39,30.14,30.07,11,2,12,0.00
2012-8-8,91,79,71,69,65,57,86,64,36,30.16,30.05,16,2,16,0.06
2012-8-9,85,72,60,64,58,-79,98,66,34,30.22,30.15,26,5,26,0.00
2012-8-10,81,68,54,58,54,48,97,65,34,30.29,30.20,8,2,11,0.00
2012-8-11,77,67,56,60,56,53,95,68,47,30.22,30.07,16,2,16,0.00
2012-8-12,74,67,61,65,60,58,98,79,61,30.15,30.00,22,5,22,0.00
2012-8-13,82,69,60,60,56,51,98,68,36,30.25,30.13,14,3,14,0.00
2012-8-14,84,73,60,62,56,53,80,59,37,30.14,29.96,11,2,13,0.00
2012-8-15,72,70,68,62,62,61,79,75,71,29.96,29.95,11,3,11,0.00
2012-8-16,75,66,59,58,48,40,89,56,30,30.22,30.10,28,9,28,0.01
2012-8-17,80,64,48,50,45,37,94,56,22,30.28,30.15,9,2,11,0.00
2012-8-18,65,58,54,57,52,45,97,81,55,30.22,30.09,17,2,17,0.32
2012-8-19,80,62,48,63,53,47,97,76,34,30.22,30.12,18,2,18,0.03
2012-8-20,84,68,0,58,54,-79,97,65,1,30.15,30.10,11,1,12,0.00
2012-8-21,87,72,55,55,53,50,97,56,31,30.18,30.07,15,3,16,0.00
2012-8-22,90,78,66,61,56,52,63,47,32,30.07,29.99,22,5,23,0.00
2012-8-23,88,79,69,67,60,50,77,54,41,30.02,29.96,19,4,21,0.00
2012-8-24,83,75,68,67,65,63,90,72,51,30.04,29.97,21,4,21,0.00
2012-8-25,74,70,67,67,66,64,99,88,76,30.06,29.97,17,4,17,0.02
2012-8-26,87,72,63,68,66,62,99,82,46,30.21,30.06,6,1,9,0.00
2012-8-27,91,76,61,68,64,59,99,71,36,30.30,30.19,16,2,17,0.00
2012-8-28,94,80,69,64,61,56,81,56,31,30.22,30.03,18,5,21,0.00
2012-8-29,99,83,69,59,55,49,69,41,21,30.05,29.94,19,4,19,0.00
2012-8-30,100,84,71,65,56,49,68,42,20,30.09,29.95,17,4,17,0.00
2012-8-31,93,77,62,65,60,52,92,58,35,30.19,30.09,12,2,14,0.00
2012-9-1,93,79,66,66,59,52,71,53,37,30.20,30.09,13,2,16,0.00
2012-9-2,94,79,65,64,62,59,83,57,34,30.11,29.98,18,5,18,0.00
2012-9-3,86,76,68,68,64,60,90,69,43,30.07,29.99,12,2,12,0.01
2012-9-4,96,80,66,70,63,56,91,61,28,30.06,29.82,37,3,37,0.03
2012-9-5,80,70,60,64,54,40,98,64,25,30.09,29.88,26,5,26,0.01
2012-9-6,88,70,51,58,49,42,95,53,23,30.11,29.88,26,4,26,0.00
2012-9-7,75,66,56,60,50,42,86,60,33,30.24,29.89,25,5,25,0.02
2012-9-8,83,64,46,48,43,37,97,53,22,30.25,30.08,29,5,29,0.00
2012-9-9,78,62,45,51,44,39,86,56,30,30.37,30.21,8,2,9,0.00
2012-9-10,87,71,56,50,48,46,72,46,25,30.21,29.96,26,6,26,0.00
2012-9-11,95,79,65,51,49,46,59,37,20,30.01,29.92,24,6,24,0.00
2012-9-12,80,74,68,53,50,47,55,43,34,30.06,30.01,10,2,12,0.00
2012-9-16,73,69,65,59,56,54,78,65,52,30.04,30.01,10,3,10,0.00
2012-9-17,67,59,49,59,45,35,97,64,31,30.19,30.03,26,4,26,0.13
2012-9-18,73,55,37,44,38,33,96,61,26,30.21,29.98,13,2,13,0.00
2012-9-19,77,63,52,50,40,30,78,47,23,30.10,29.87,36,8,37,0.00
2012-9-20,70,58,48,46,34,29,66,42,24,30.16,30.02,12,2,17,0.00
2012-9-21,71,62,52,47,38,32,71,44,25,30.08,29.91,29,7,31,0.00
2012-9-22,56,52,46,40,34,29,60,52,48,30.20,30.08,17,4,19,0.00
2012-9-23,69,57,31,34,32,27,92,41,25,30.45,30.26,8,2,9,0.00
2012-9-24,78,61,48,45,39,32,63,46,27,30.26,29.95,12,3,12,0.00
2012-9-25,86,64,45,52,44,36,97,55,20,30.06,29.91,8,1,8,0.00
2012-9-26,76,60,46,38,32,24,68,38,15,30.26,30.06,15,2,16,0.00
2012-9-27,78,56,36,44,36,27,92,53,19,30.33,30.24,9,1,9,0.00
2012-9-28,77,56,37,47,36,28,92,53,17,30.31,30.22,9,1,9,0.00
2012-9-29,82,62,44,50,42,37,96,52,22,30.27,30.15,9,2,9,0.00
2012-9-30,82,62,48,53,45,40,95,59,24,30.15,30.02,9,1,9,0.00
2012-10-1,71,59,49,54,44,36,94,61,31,30.15,29.99,30,6,30,0.00
2012-10-2,76,56,35,40,32,24,96,48,15,30.11,29.95,12,2,12,0.00
2012-10-3,80,64,50,42,35,30,65,36,18,30.07,29.85,33,6,34,0.00
2012-10-4,54,47,36,43,35,26,78,63,43,30.40,30.06,35,13,36,0.00
2012-10-5,52,39,29,31,26,20,88,62,33,30.41,30.31,25,6,25,0.00
2012-10-6,47,35,22,30,23,15,87,62,40,30.44,30.36,24,5,24,0.00
2012-10-7,59,41,23,30,23,18,92,55,22,30.36,30.01,24,3,24,0.00
2012-10-8,73,57,43,46,33,27,68,44,19,30.01,29.82,20,4,23,0.00
2012-10-9,56,48,33,48,37,25,93,67,34,30.20,29.90,36,7,36,0.00
2012-10-10,65,52,31,33,29,23,84,43,28,30.28,30.05,16,3,16,0.00
2012-10-11,54,49,36,35,29,22,61,47,38,30.46,30.02,19,3,19,0.00
2012-10-12,58,44,30,43,26,18,86,51,22,30.47,30.07,24,5,24,0.00
2012-10-13,73,60,51,59,53,42,97,80,58,30.07,29.76,16,3,16,0.04
2012-10-14,64,54,44,54,40,32,88,61,35,30.06,29.77,29,8,29,0.00
2012-10-15,74,56,37,44,39,34,96,59,28,30.06,29.80,18,4,18,0.00
2012-10-16,74,62,52,49,46,43,87,57,36,29.80,29.46,21,5,22,0.00
2012-10-17,68,57,48,51,37,20,76,49,26,29.63,29.37,43,12,43,0.03
2012-10-18,53,45,42,43,38,-79,96,80,32,29.67,29.43,46,18,55,1.07
2012-10-19,44,43,41,42,41,40,96,92,86,29.90,29.63,44,14,49,0.19
2012-10-20,42,38,35,40,36,34,96,95,95,29.88,29.86,5,1,6,0.00
2012-10-25,37,36,34,33,30,-79,86,79,74,30.40,30.20,30,10,33,0.50
2012-10-26,39,36,33,31,28,-79,89,72,57,30.55,30.39,22,6,22,0.00
2012-10-27,44,35,25,33,27,23,94,74,54,30.47,30.31,15,3,15,0.01
2012-10-28,53,42,33,34,31,28,89,66,43,30.36,30.24,21,6,21,0.01
2012-10-29,58,48,41,34,31,29,65,54,39,30.27,30.18,22,7,25,0.00
2012-10-30,55,44,37,32,28,24,75,57,34,30.20,30.13,16,3,17,0.00
2012-10-31,63,45,29,36,32,25,95,64,35,30.14,30.04,9,1,9,0.00
2012-11-1,53,42,34,40,35,27,96,77,48,30.15,30.03,15,2,15,0.00
2012-11-2,47,39,32,36,29,26,92,68,50,30.18,30.04,15,3,15,0.00
2012-11-3,53,38,25,36,31,24,95,80,50,30.30,30.18,8,1,8,0.00
2012-11-4,55,45,38,46,39,34,97,79,53,30.25,30.11,15,2,15,0.12
2012-11-5,43,39,38,42,36,34,96,90,78,30.26,30.04,18,5,18,0.01
2012-11-6,53,44,37,41,36,32,93,73,49,30.15,29.96,43,10,43,0.00
2012-11-7,53,41,27,36,31,26,95,72,46,30.24,30.04,16,4,16,0.00
2012-11-8,64,48,38,37,34,31,88,61,33,30.04,29.94,17,5,20,0.00
2012-11-9,61,46,32,48,40,30,96,80,54,30.00,29.72,14,4,14,0.00
2012-11-10,64,52,32,56,47,30,97,86,53,29.79,29.54,31,6,31,0.67
2012-11-11,32,24,19,31,18,12,95,76,57,30.21,29.76,41,12,41,0.00
2012-11-12,36,26,18,19,15,12,83,66,42,30.41,30.19,24,6,27,0.00
2012-11-13,49,35,22,32,24,16,83,65,44,30.41,30.28,14,3,14,0.00
2012-11-14,53,41,26,33,28,23,94,64,41,30.36,30.22,10,2,10,0.00
2012-11-15,45,42,40,32,30,29,71,61,54,30.24,30.23,6,2,10,0.00
2012-11-16,51,44,29,34,31,23,81,62,50,30.53,30.32,18,6,18,0.00
2012-11-17,62,49,39,38,35,34,83,62,41,30.33,30.18,22,7,24,0.00
2012-11-18,62,50,40,38,33,29,66,53,36,30.19,30.09,21,6,21,0.00
2012-11-19,56,47,36,41,37,32,85,71,55,30.22,30.05,23,6,24,0.00
2012-11-20,59,43,28,38,33,26,95,70,41,30.30,30.13,18,4,18,0.00
2012-11-21,71,57,45,44,39,35,72,54,33,30.13,29.85,26,6,28,0.00
2012-11-22,58,47,32,44,37,22,89,68,59,30.33,29.78,45,11,45,0.00
2012-11-23,32,23,17,24,14,9,83,68,48,30.58,30.32,46,12,46,0.01
2012-11-24,42,30,17,26,16,10,88,59,40,30.45,29.93,27,5,27,0.00
2012-11-25,38,33,27,29,25,22,89,74,58,30.27,29.95,16,4,17,0.00
2012-11-26,31,23,13,24,15,8,85,72,61,30.54,30.27,17,3,17,0.00
2012-11-27,41,25,13,27,19,7,94,77,56,30.48,30.21,19,4,19,0.00
2012-11-28,46,31,18,29,23,16,93,73,43,30.45,30.13,18,3,19,0.00
2012-11-29,50,37,25,33,29,24,94,75,50,30.13,30.00,7,2,10,0.00
2012-11-30,44,32,19,34,28,17,94,84,63,30.20,30.02,16,3,16,0.00
2012-12-1,57,42,32,46,39,30,97,87,57,30.04,29.85,16,3,16,0.00
2012-12-2,59,42,26,44,36,24,95,81,56,30.08,29.82,18,4,18,0.00
2012-12-3,58,47,34,45,36,23,97,69,36,30.16,29.68,43,7,43,0.03
2012-12-4,52,39,30,28,24,-79,75,55,35,30.39,30.16,16,2,16,0.00
2012-12-5,54,39,0,30,22,-79,72,55,1,30.40,1.40,24,8,26,0.00
2012-12-6,52,44,38,38,30,24,82,59,34,30.11,29.92,26,6,26,0.04
2012-12-7,38,31,0,31,26,-79,95,83,1,30.11,30.00,9,1,9,0.02
2012-12-8,36,30,0,31,26,-79,94,89,1,30.10,29.90,20,4,21,0.01
2012-12-9,36,19,0,34,13,-79,95,83,1,30.24,29.88,39,13,39,4.13
2012-12-10,25,13,1,16,5,-1,92,73,49,30.25,29.98,29,5,30,0.01
2012-12-11,41,30,22,26,21,17,85,71,55,30.06,29.97,16,4,16,0.01
2012-12-12,51,39,28,21,18,16,64,44,28,30.02,29.95,23,6,26,0.00
2012-12-13,39,31,20,24,19,16,89,62,43,30.21,29.99,20,5,22,0.00
2012-12-14,49,34,18,39,26,16,93,74,53,30.19,29.72,18,4,19,0.02
2012-12-15,44,37,28,42,36,26,96,95,84,29.84,29.60,24,6,26,0.77
2012-12-16,28,25,23,26,23,21,94,92,88,29.94,29.83,16,5,18,0.75
2012-12-17,28,26,24,26,25,23,94,94,93,29.91,29.71,15,2,16,0.00
2012-12-18,38,29,24,32,27,22,94,92,78,29.96,29.58,20,4,21,0.00
2012-12-19,39,29,20,32,26,18,95,88,70,30.08,29.96,27,3,27,0.00
2012-12-20,20,16,8,18,14,7,93,91,82,30.35,30.04,37,13,37,0.03
2012-12-21,25,17,8,16,13,6,93,82,67,30.44,30.24,14,4,15,0.00
2012-12-22,35,21,12,25,18,9,93,87,65,30.24,30.06,19,6,21,0.00
2012-12-23,19,13,6,15,10,4,93,88,75,30.22,30.10,18,3,19,0.00
2012-12-24,15,10,2,10,6,-2,90,84,76,30.47,30.15,28,8,29,0.00
2012-12-25,10,4,-1,5,-1,-79,92,83,1,30.68,30.47,20,7,20,0.00
2012-12-26,18,8,-4,9,3,-6,92,82,62,30.56,30.31,10,2,11,0.00
2012-12-27,20,16,11,18,15,9,93,92,86,30.31,30.14,11,3,13,0.00
2012-12-28,20,15,8,18,14,6,93,92,89,30.26,30.12,20,4,20,0.00
2012-12-29,18,9,-2,14,6,-4,93,90,74,30.35,30.25,13,2,19,0.01
2012-12-30,34,18,1,26,14,-1,93,83,68,30.35,30.03,24,6,24,0.04
2012-12-31,22,14,1,16,11,-1,93,86,71,30.44,30.25,19,4,19,0.00
2013-1-1,20,12,1,17,8,-1,93,86,78,30.44,30.19,12,3,12,0.00